createdAt,value
2019-01-04T00:02:41.852Z,18.30
2019-01-04T00:05:30.641Z,14.67
2019-01-04T00:08:19.454Z,18.03
2019-01-04T00:11:08.250Z,14.47
2019-01-04T00:13:57.062Z,15.57
2019-01-04T00:16:45.864Z,17.70
2019-01-04T00:19:34.668Z,17.73
2019-01-04T00:22:23.454Z,22.57
2019-01-04T00:25:12.265Z,12.57
2019-01-04T00:28:01.129Z,16.10
2019-01-04T00:30:49.942Z,23.10
2019-01-04T00:33:38.738Z,19.40
2019-01-04T00:36:27.551Z,15.63
2019-01-04T00:39:16.414Z,14.20
2019-01-04T00:42:05.231Z,12.43
2019-01-04T00:44:54.321Z,13.32
2019-01-04T00:47:43.122Z,21.87
2019-01-04T00:50:31.981Z,14.30
2019-01-04T00:53:20.801Z,15.83
2019-01-04T00:56:30.531Z,16.07
2019-01-04T00:59:40.221Z,20.47
2019-01-04T01:02:49.947Z,14.27
2019-01-04T01:06:17.440Z,11.23
2019-01-04T01:09:44.927Z,16.10
2019-01-04T01:13:12.425Z,20.27
2019-01-04T01:16:39.906Z,15.23
2019-01-04T01:19:49.623Z,18.60
2019-01-04T01:22:59.328Z,16.63
2019-01-04T01:26:26.828Z,19.00
2019-01-04T01:29:54.338Z,16.55
2019-01-04T01:33:21.818Z,16.60
2019-01-04T01:36:49.320Z,30.17
2019-01-04T01:40:18.085Z,26.60
2019-01-04T01:43:45.591Z,25.10
2019-01-04T01:46:55.342Z,24.67
2019-01-04T01:50:05.078Z,23.25
2019-01-04T01:52:53.876Z,24.80
2019-01-04T01:55:42.692Z,30.30
2019-01-04T01:58:23.975Z,22.35
2019-01-04T02:01:12.862Z,24.00
2019-01-04T02:04:01.672Z,18.37
2019-01-04T02:06:50.476Z,21.33
2019-01-04T02:09:39.293Z,23.17
2019-01-04T02:12:28.080Z,18.90
2019-01-04T02:15:16.893Z,21.23
2019-01-04T02:18:05.681Z,18.27
2019-01-04T02:20:54.516Z,19.90
2019-01-04T02:23:43.310Z,21.23
2019-01-04T02:26:32.124Z,25.20
2019-01-04T02:29:20.931Z,26.37
2019-01-04T02:32:09.737Z,20.97
2019-01-04T02:34:58.531Z,17.20
2019-01-04T02:37:47.371Z,15.60
2019-01-04T02:40:36.177Z,19.32
2019-01-04T02:43:24.993Z,23.30
2019-01-04T02:46:13.788Z,16.93
2019-01-04T02:49:02.604Z,22.40
2019-01-04T02:51:51.395Z,15.47
2019-01-04T02:54:40.214Z,18.20
2019-01-04T02:57:21.615Z,18.50
2019-01-04T03:00:10.500Z,23.92
2019-01-04T03:02:59.294Z,17.13
2019-01-04T03:05:48.120Z,21.52
2019-01-04T03:08:36.921Z,21.65
2019-01-04T03:11:25.748Z,19.80
2019-01-04T03:14:14.552Z,18.75
2019-01-04T03:17:03.363Z,25.20
2019-01-04T03:19:52.162Z,17.65
2019-01-04T03:22:40.995Z,24.63
2019-01-04T03:25:29.800Z,24.23
2019-01-04T03:28:18.606Z,24.05
2019-01-04T03:31:07.422Z,23.23
2019-01-04T03:33:56.222Z,18.83
2019-01-04T03:36:45.047Z,20.07
2019-01-04T03:39:33.853Z,22.77
2019-01-04T03:42:41.760Z,21.87
2019-01-04T03:45:30.547Z,20.25
2019-01-04T03:48:19.360Z,19.27
2019-01-04T03:51:08.175Z,23.50
2019-01-04T03:53:57.234Z,14.00
2019-01-04T03:56:46.043Z,17.50
2019-01-04T03:59:27.825Z,17.75
2019-01-04T04:02:16.636Z,16.70
2019-01-04T04:05:06.099Z,18.62
2019-01-04T04:07:54.911Z,21.23
2019-01-04T04:10:43.714Z,12.03
2019-01-04T04:13:32.536Z,24.67
2019-01-04T04:16:21.326Z,20.90
2019-01-04T04:19:10.147Z,18.27
2019-01-04T04:21:58.932Z,24.20
2019-01-04T04:24:47.753Z,28.77
2019-01-04T04:27:36.569Z,28.50
2019-01-04T04:30:25.368Z,19.57
2019-01-04T04:33:14.180Z,16.40
2019-01-04T04:36:02.983Z,13.83
2019-01-04T04:38:51.783Z,15.85
2019-01-04T04:41:40.598Z,22.60
2019-01-04T04:44:29.393Z,24.60
2019-01-04T04:47:18.200Z,22.55
2019-01-04T04:50:07.060Z,16.90
2019-01-04T04:52:55.875Z,20.10
2019-01-04T04:55:44.669Z,21.83
2019-01-04T04:58:26.332Z,21.00
2019-01-04T05:01:15.127Z,17.37
2019-01-04T05:04:03.945Z,19.30
2019-01-04T05:06:52.754Z,21.10
2019-01-04T05:09:41.552Z,19.30
2019-01-04T05:12:30.366Z,20.97
2019-01-04T05:15:19.174Z,20.35
2019-01-04T05:18:07.986Z,20.25
2019-01-04T05:20:56.787Z,22.77
2019-01-04T05:23:45.603Z,21.85
2019-01-04T05:26:34.398Z,25.50
2019-01-04T05:29:23.220Z,16.80
2019-01-04T05:32:12.023Z,19.97
2019-01-04T05:35:00.833Z,18.98
2019-01-04T05:37:49.629Z,17.63
2019-01-04T05:40:38.442Z,20.37
2019-01-04T05:46:42.271Z,21.25
2019-01-04T05:49:31.365Z,25.37
2019-01-04T05:52:20.161Z,21.77
2019-01-04T05:55:08.962Z,19.92
2019-01-04T05:57:50.662Z,20.00
2019-01-04T06:00:39.483Z,21.53
2019-01-04T06:03:28.335Z,21.42
2019-01-04T06:06:17.166Z,22.90
2019-01-04T06:09:26.878Z,20.23
2019-01-04T06:12:17.412Z,21.63
2019-01-04T06:15:06.376Z,21.13
2019-01-04T06:17:55.193Z,23.07
2019-01-04T06:20:43.991Z,18.27
2019-01-04T06:23:32.806Z,20.77
2019-01-04T06:26:21.594Z,24.73
2019-01-04T06:29:10.397Z,18.67
2019-01-04T06:31:59.192Z,20.88
2019-01-04T06:34:48.008Z,25.27
2019-01-04T06:37:36.801Z,27.17
2019-01-04T06:40:25.622Z,24.25
2019-01-04T06:43:14.455Z,21.37
2019-01-04T06:46:03.336Z,26.42
2019-01-04T06:48:52.134Z,22.17
2019-01-04T06:51:40.949Z,19.57
2019-01-04T06:55:08.439Z,30.85
2019-01-04T06:57:57.252Z,25.17
2019-01-04T07:00:36.972Z,22.50
2019-01-04T07:03:25.797Z,22.37
2019-01-04T07:06:14.591Z,20.13
2019-01-04T07:09:03.418Z,23.27
2019-01-04T07:11:52.214Z,20.35
2019-01-04T07:14:41.030Z,25.72
2019-01-04T07:17:29.828Z,26.67
2019-01-04T07:20:18.638Z,24.07
2019-01-04T07:23:07.443Z,18.75
2019-01-04T07:26:15.363Z,22.60
2019-01-04T07:29:04.158Z,18.80
2019-01-04T07:31:52.976Z,19.87
2019-01-04T07:34:41.778Z,17.42
2019-01-04T07:37:30.600Z,21.77
2019-01-04T07:40:19.394Z,19.43
2019-01-04T07:43:08.215Z,22.60
2019-01-04T07:45:57.013Z,17.10
2019-01-04T07:48:45.830Z,19.77
2019-01-04T07:51:34.646Z,17.50
2019-01-04T07:54:23.456Z,24.12
2019-01-04T07:57:05.160Z,26.35
2019-01-04T07:59:53.956Z,23.00
2019-01-04T08:05:58.906Z,24.83
2019-01-04T08:08:47.718Z,28.47
2019-01-04T08:11:36.504Z,32.27
2019-01-04T08:14:25.327Z,36.90
2019-01-04T08:17:33.167Z,27.13
2019-01-04T08:20:22.007Z,24.50
2019-01-04T08:23:10.809Z,29.57
2019-01-04T08:25:59.622Z,27.03
2019-01-04T08:28:48.467Z,28.97
2019-01-04T08:31:37.353Z,16.90
2019-01-04T08:34:26.223Z,25.85
2019-01-04T08:37:15.096Z,23.17
2019-01-04T08:43:18.771Z,22.53
2019-01-04T08:46:07.648Z,23.00
2019-01-04T08:48:56.525Z,21.00
2019-01-04T08:51:45.361Z,23.80
2019-01-04T08:54:34.212Z,29.37
2019-01-04T08:57:16.509Z,21.40
2019-01-04T09:00:26.318Z,22.57
2019-01-04T09:03:15.166Z,14.67
2019-01-04T09:06:04.051Z,15.80
2019-01-04T09:09:11.984Z,15.07
2019-01-04T09:12:00.893Z,18.80
2019-01-04T09:14:49.735Z,15.50
2019-01-04T09:17:38.619Z,17.77
2019-01-04T09:20:27.503Z,15.60
2019-01-04T09:23:16.335Z,14.00
2019-01-04T09:26:05.596Z,11.70
2019-01-04T09:28:54.410Z,18.23
2019-01-04T09:31:43.282Z,11.03
2019-01-04T09:34:32.132Z,29.77
2019-01-04T09:37:20.982Z,12.57
2019-01-04T09:40:10.192Z,10.87
2019-01-04T09:43:18.076Z,10.90
2019-01-04T09:46:06.879Z,16.97
2019-01-04T09:48:55.755Z,13.07
2019-01-04T09:51:44.610Z,12.40
2019-01-04T09:54:26.474Z,20.03
2019-01-04T09:57:15.316Z,10.77
2019-01-04T10:03:19.862Z,14.60
2019-01-04T10:06:08.704Z,15.67
2019-01-04T10:08:57.583Z,15.33
2019-01-04T10:11:46.459Z,13.80
2019-01-04T10:14:35.322Z,21.53
2019-01-04T10:17:24.256Z,14.13
2019-01-04T10:20:13.286Z,11.90
2019-01-04T10:23:02.149Z,15.87
2019-01-04T10:25:51.064Z,16.00
2019-01-04T10:28:39.908Z,16.33
2019-01-04T10:31:28.778Z,10.77
2019-01-04T10:34:17.624Z,11.80
2019-01-04T10:37:06.488Z,11.47
2019-01-04T10:39:55.408Z,13.80
2019-01-04T10:42:44.254Z,17.10
2019-01-04T10:45:33.059Z,14.97
2019-01-04T10:48:21.845Z,15.80
2019-01-04T10:51:10.924Z,11.23
2019-01-04T10:53:52.808Z,13.10
2019-01-04T10:56:41.598Z,15.70
2019-01-04T10:59:30.385Z,19.20
2019-01-04T11:02:19.187Z,20.70
2019-01-04T11:05:28.882Z,12.77
2019-01-04T11:08:17.687Z,16.13
2019-01-04T11:11:06.470Z,14.30
2019-01-04T11:13:55.274Z,14.83
2019-01-04T11:16:44.084Z,15.80
2019-01-04T11:19:32.895Z,15.40
2019-01-04T11:23:00.396Z,14.20
2019-01-04T11:26:10.096Z,23.50
2019-01-04T11:29:37.596Z,10.87
2019-01-04T11:32:47.286Z,9.10
2019-01-04T11:36:14.832Z,17.80
2019-01-04T11:39:42.309Z,17.80
2019-01-04T11:43:09.806Z,12.50
2019-01-04T11:46:19.551Z,16.03
2019-01-04T11:49:29.312Z,16.60
2019-01-04T11:52:39.002Z,14.47
2019-01-04T11:55:20.401Z,22.17
2019-01-04T11:58:09.191Z,21.87
2019-01-04T12:00:57.997Z,16.60
2019-01-04T12:04:07.696Z,10.83
2019-01-04T12:06:56.503Z,11.40
2019-01-04T12:09:45.284Z,8.10
2019-01-04T12:12:34.098Z,6.67
2019-01-04T12:15:22.897Z,10.97
2019-01-04T12:18:11.681Z,13.20
2019-01-04T12:21:00.506Z,10.73
2019-01-04T12:23:49.292Z,11.97
2019-01-04T12:26:38.102Z,18.50
2019-01-04T12:29:26.886Z,14.90
2019-01-04T12:32:15.686Z,11.13
2019-01-04T12:35:04.567Z,15.50
2019-01-04T12:37:53.375Z,6.07
2019-01-04T12:40:42.465Z,7.08
2019-01-04T12:43:31.267Z,5.70
2019-01-04T12:46:20.059Z,6.40
2019-01-04T12:49:09.179Z,7.37
2019-01-04T12:51:57.967Z,9.27
2019-01-04T12:54:46.780Z,5.57
2019-01-04T12:57:28.564Z,6.20
2019-01-04T13:00:17.373Z,4.53
2019-01-04T13:03:06.156Z,3.87
2019-01-04T13:05:55.132Z,7.20
2019-01-04T13:08:43.925Z,7.30
2019-01-04T13:14:26.974Z,9.03
2019-01-04T13:17:15.773Z,7.43
2019-01-04T13:23:33.140Z,7.70
2019-01-04T13:26:21.925Z,6.40
2019-01-04T13:29:10.737Z,8.60
2019-01-04T13:31:59.515Z,7.72
2019-01-04T13:34:48.318Z,7.63
2019-01-04T13:37:37.176Z,5.07
2019-01-04T13:40:25.986Z,4.60
2019-01-04T13:43:14.839Z,4.77
2019-01-04T13:45:56.385Z,6.10
2019-01-04T13:48:45.188Z,5.60
2019-01-04T13:51:33.990Z,6.60
2019-01-04T13:54:22.783Z,14.13
2019-01-04T13:57:11.587Z,7.40
2019-01-04T14:00:00.401Z,4.77
2019-01-04T14:02:49.174Z,14.40
2019-01-04T14:05:37.976Z,10.87
2019-01-04T14:08:26.759Z,18.43
2019-01-04T14:11:15.566Z,14.93
2019-01-04T14:14:04.348Z,11.47
2019-01-04T14:16:53.150Z,11.97
2019-01-04T14:19:41.940Z,11.43
2019-01-04T14:22:30.753Z,11.23
2019-01-04T14:25:19.547Z,9.63
2019-01-04T14:28:27.370Z,9.20
2019-01-04T14:31:16.171Z,5.40
2019-01-04T14:34:04.955Z,8.20
2019-01-04T14:36:53.754Z,7.23
2019-01-04T14:39:42.557Z,12.53
2019-01-04T14:42:31.351Z,10.70
2019-01-04T14:45:12.760Z,11.33
2019-01-04T14:48:01.621Z,10.53
2019-01-04T14:53:45.992Z,15.10
2019-01-04T14:56:34.782Z,14.90
2019-01-04T14:59:42.609Z,11.53
2019-01-04T15:02:31.389Z,5.60
2019-01-04T15:05:20.192Z,3.20
2019-01-04T15:08:08.972Z,4.70
2019-01-04T15:10:57.778Z,3.80
2019-01-04T15:16:40.645Z,7.92
2019-01-04T15:19:29.448Z,5.33
2019-01-04T15:22:18.250Z,7.03
2019-01-04T15:28:15.503Z,11.57
2019-01-04T15:31:04.285Z,8.30
2019-01-04T15:33:53.178Z,10.07
2019-01-04T15:36:41.973Z,7.77
2019-01-04T15:39:30.774Z,9.00
2019-01-04T15:42:19.556Z,7.03
2019-01-04T15:45:01.255Z,5.67
2019-01-04T15:47:50.065Z,5.63
2019-01-04T15:50:38.875Z,6.43
2019-01-04T15:53:27.670Z,4.53
2019-01-04T15:56:16.731Z,6.90
2019-01-04T15:59:05.515Z,7.63
2019-01-04T16:01:54.323Z,7.33
2019-01-04T16:04:43.108Z,9.70
2019-01-04T16:07:31.914Z,14.70
2019-01-04T16:10:39.726Z,11.37
2019-01-04T16:13:28.528Z,4.83
2019-01-04T16:16:17.318Z,5.43
2019-01-04T16:19:06.123Z,4.30
2019-01-04T16:21:54.906Z,4.00
2019-01-04T16:24:43.707Z,6.60
2019-01-04T16:27:32.490Z,4.50
2019-01-04T16:30:21.293Z,2.30
2019-01-04T16:33:10.081Z,3.47
2019-01-04T16:35:58.899Z,2.60
2019-01-04T16:38:47.679Z,6.30
2019-01-04T16:41:36.482Z,3.10
2019-01-04T16:44:25.268Z,14.77
2019-01-04T16:47:06.827Z,13.13
2019-01-04T16:49:55.610Z,13.30
2019-01-04T16:53:03.784Z,14.33
2019-01-04T16:55:52.570Z,5.90
2019-01-04T16:58:41.382Z,6.83
2019-01-04T17:01:30.189Z,3.77
2019-01-04T17:04:18.997Z,3.47
2019-01-04T17:07:07.786Z,4.00
2019-01-04T17:09:56.587Z,3.20
2019-01-04T17:12:45.391Z,3.40
2019-01-04T17:15:34.193Z,4.47
2019-01-04T17:18:22.974Z,5.40
2019-01-04T17:21:11.780Z,5.90
2019-01-04T17:24:00.565Z,9.47
2019-01-04T17:26:49.370Z,6.90
2019-01-04T17:29:38.155Z,7.90
2019-01-04T17:32:26.961Z,5.40
2019-01-04T17:35:15.768Z,7.40
2019-01-04T17:38:04.554Z,4.50
2019-01-04T17:40:53.369Z,5.17
2019-01-04T17:43:34.655Z,4.73
2019-01-04T17:46:23.462Z,5.70
2019-01-04T17:49:12.263Z,6.50
2019-01-04T17:52:01.061Z,7.63
2019-01-04T17:54:49.864Z,10.20
2019-01-04T17:57:38.651Z,9.90
2019-01-04T18:00:27.459Z,4.63
2019-01-04T18:03:16.246Z,6.50
2019-01-04T18:06:05.048Z,6.63
2019-01-04T18:08:53.841Z,5.97
2019-01-04T18:11:42.642Z,6.90
2019-01-04T18:14:31.429Z,11.83
2019-01-04T18:17:20.229Z,8.40
2019-01-04T18:23:38.332Z,7.53
2019-01-04T18:26:27.134Z,8.00
2019-01-04T18:29:15.935Z,5.60
2019-01-04T18:32:04.728Z,7.80
2019-01-04T18:34:53.531Z,8.80
2019-01-04T18:37:42.325Z,5.35
2019-01-04T18:40:32.275Z,5.90
2019-01-04T18:43:14.238Z,8.87
2019-01-04T18:46:03.042Z,6.57
2019-01-04T18:48:51.827Z,7.47
2019-01-04T18:51:40.635Z,8.10
2019-01-04T18:54:29.746Z,11.40
2019-01-04T18:57:18.552Z,8.40
2019-01-04T19:00:28.262Z,5.87
2019-01-04T19:03:17.097Z,6.73
2019-01-04T19:06:05.907Z,6.07
2019-01-04T19:08:54.699Z,9.80
2019-01-04T19:11:43.578Z,5.20
2019-01-04T19:17:31.629Z,6.00
2019-01-04T19:20:20.438Z,6.77
2019-01-04T19:23:09.222Z,5.83
2019-01-04T19:25:58.028Z,9.17
2019-01-04T19:28:27.501Z,8.60
2019-01-04T19:31:16.373Z,7.10
2019-01-04T19:34:05.160Z,6.03
2019-01-04T19:36:54.124Z,4.07
2019-01-04T19:39:42.949Z,8.60
2019-01-04T19:42:31.913Z,7.30
2019-01-04T19:45:12.117Z,7.67
2019-01-04T19:48:01.199Z,7.13
2019-01-04T19:50:49.986Z,8.43
2019-01-04T19:53:39.147Z,5.43
2019-01-04T19:56:28.387Z,5.30
2019-01-04T19:59:17.746Z,5.77
2019-01-04T20:02:07.666Z,3.27
2019-01-04T20:04:56.910Z,4.80
2019-01-04T20:08:25.990Z,5.30
2019-01-04T20:15:46.568Z,6.27
2019-01-04T20:22:04.782Z,7.20
2019-01-04T20:25:13.071Z,6.00
2019-01-04T20:31:17.494Z,4.62
2019-01-04T20:34:25.671Z,5.20
2019-01-04T20:37:14.803Z,5.53
2019-01-04T20:43:38.953Z,6.53
2019-01-04T20:46:22.740Z,14.60
2019-01-04T20:49:30.985Z,10.03
2019-01-04T20:58:31.208Z,8.70
2019-01-04T21:01:39.892Z,8.65
2019-01-04T21:04:55.354Z,5.67
2019-01-04T21:08:03.955Z,4.37
2019-01-04T21:11:12.641Z,3.47
2019-01-04T21:14:21.245Z,4.33
2019-01-04T21:27:18.929Z,8.63
2019-01-04T21:30:27.679Z,3.60
2019-01-04T21:36:29.876Z,2.90
2019-01-04T21:39:38.583Z,3.80
2019-01-04T21:42:47.289Z,6.47
2019-01-04T21:45:48.771Z,9.63
2019-01-04T21:48:57.496Z,7.70
2019-01-04T21:52:05.691Z,5.80
2019-01-04T21:55:14.058Z,5.73
2019-01-04T21:58:22.354Z,6.80
2019-01-04T22:01:30.702Z,3.20
2019-01-04T22:04:39.021Z,6.13
2019-01-04T22:07:47.329Z,4.97
2019-01-04T22:13:51.945Z,3.33
2019-01-04T22:17:00.195Z,4.40
2019-01-04T22:20:08.527Z,5.90
2019-01-04T22:23:16.782Z,6.43
2019-01-04T22:29:20.653Z,5.60
2019-01-04T22:32:28.536Z,4.50
2019-01-04T22:35:36.389Z,4.40
2019-01-04T22:41:43.564Z,4.57
2019-01-04T22:44:51.402Z,14.70
2019-01-04T22:50:53.474Z,11.33
2019-01-04T22:54:01.310Z,5.73
2019-01-04T22:57:09.127Z,4.60
2019-01-04T23:00:16.962Z,5.03
2019-01-04T23:03:24.775Z,4.73
2019-01-04T23:06:32.612Z,5.83
2019-01-04T23:09:40.421Z,3.30
2019-01-04T23:18:43.542Z,6.67
2019-01-04T23:22:11.749Z,5.60
2019-01-04T23:25:19.584Z,6.50
2019-01-04T23:28:27.393Z,4.73
2019-01-04T23:31:35.227Z,5.70
2019-01-04T23:34:43.044Z,11.90
2019-01-04T23:37:44.030Z,3.80
2019-01-04T23:40:51.843Z,3.90
2019-01-04T23:43:59.676Z,5.57
2019-01-04T23:47:07.501Z,8.93
2019-01-04T23:50:15.326Z,6.07
2019-01-04T23:59:28.152Z,6.07
